Time;durP1;ratioP1;P1;durP2;ratioP2;P2;SDS_P1;SDS_P2;PMS_P1;PMS_P2;Temp;Humidity;BMP_temperature;BMP_pressure;BME280_temperature;BME280_humidity;BME280_pressure;Samples;Min_cycle;Max_cycle;Signal;HPM_P1;HPM_P2
2021/04/01 00:02:27;;;;;;;20.00;11.43;;;10.80;62.60;;;;;;4891129;29;20197;-70
2021/04/01 00:04:54;;;;;;;29.33;12.63;;;10.80;62.50;;;;;;4885341;29;20268;-70
2021/04/01 00:07:20;;;;;;;23.33;13.20;;;10.80;62.60;;;;;;4885465;29;20189;-70
2021/04/01 00:09:46;;;;;;;22.50;13.40;;;10.80;62.80;;;;;;4890056;29;20185;-70
2021/04/01 00:12:12;;;;;;;20.33;13.67;;;10.80;62.80;;;;;;4887944;29;20265;-71
2021/04/01 00:14:38;;;;;;;24.60;13.33;;;10.80;63.00;;;;;;4886231;29;20217;-70
2021/04/01 00:17:06;;;;;;;25.43;13.23;;;10.70;62.80;;;;;;4879556;29;20177;-70
2021/04/01 00:19:32;;;;;;;20.33;13.10;;;10.70;62.90;;;;;;4882866;29;20177;-71
2021/04/01 00:21:58;;;;;;;21.90;12.10;;;10.70;63.10;;;;;;4879536;29;20194;-70
2021/04/01 00:24:23;;;;;;;20.83;12.07;;;10.70;63.60;;;;;;4875303;29;20241;-71
2021/04/01 00:26:49;;;;;;;23.43;13.07;;;10.60;63.40;;;;;;4885230;29;20199;-70
2021/04/01 00:29:15;;;;;;;21.47;12.57;;;10.60;63.60;;;;;;4886723;29;20268;-70
2021/04/01 00:31:40;;;;;;;24.07;13.63;;;10.60;63.70;;;;;;4886045;29;20197;-70
2021/04/01 00:34:06;;;;;;;21.93;13.07;;;10.40;63.60;;;;;;4892862;29;20220;-71
2021/04/01 00:36:32;;;;;;;20.90;12.73;;;10.40;63.80;;;;;;4893730;29;20192;-71
2021/04/01 00:38:58;;;;;;;18.93;12.10;;;10.30;63.80;;;;;;4891441;29;20693;-70
2021/04/01 00:41:23;;;;;;;17.73;11.03;;;10.30;63.80;;;;;;4893080;29;20201;-70
2021/04/01 00:43:49;;;;;;;21.23;10.33;;;10.30;63.80;;;;;;4893121;29;20181;-70
2021/04/01 00:46:15;;;;;;;16.67;11.10;;;10.30;64.00;;;;;;4884479;29;20198;-70
2021/04/01 00:48:40;;;;;;;19.43;10.40;;;10.30;64.00;;;;;;4888017;29;20192;-70
2021/04/01 00:51:06;;;;;;;16.80;9.97;;;10.20;64.10;;;;;;4884913;29;20190;-70
2021/04/01 00:53:32;;;;;;;17.07;9.17;;;10.30;64.00;;;;;;4883413;29;20291;-71
2021/04/01 00:55:58;;;;;;;15.27;8.87;;;10.20;63.80;;;;;;4892878;29;20181;-70
2021/04/01 00:58:25;;;;;;;17.63;9.27;;;10.20;64.20;;;;;;4892750;29;20189;-71
2021/04/01 01:01:06;;;;;;;14.97;9.20;;;10.20;64.00;;;;;;4892815;29;20974;-70
2021/04/01 01:03:32;;;;;;;15.03;8.40;;;10.20;64.20;;;;;;4892052;29;20192;-70
2021/04/01 01:05:58;;;;;;;12.30;8.33;;;10.20;64.00;;;;;;4887660;29;20193;-70
2021/04/01 01:08:23;;;;;;;12.03;8.00;;;10.20;63.90;;;;;;4893045;29;20188;-70
2021/04/01 01:10:49;;;;;;;9.13;6.90;;;10.20;64.10;;;;;;4892667;29;20758;-71
2021/04/01 01:13:15;;;;;;;7.20;6.27;;;10.10;64.40;;;;;;4893498;29;20199;-71
2021/04/01 01:15:40;;;;;;;8.57;7.00;;;10.10;64.00;;;;;;4891761;29;20209;-71
2021/04/01 01:18:06;;;;;;;7.90;6.57;;;10.10;63.90;;;;;;4884603;29;20183;-71
2021/04/01 01:20:32;;;;;;;8.83;6.60;;;10.10;63.90;;;;;;4892625;29;20236;-70
2021/04/01 01:22:58;;;;;;;9.80;7.40;;;10.10;63.90;;;;;;4894218;29;20983;-70
2021/04/01 01:25:24;;;;;;;14.93;6.87;;;10.10;64.00;;;;;;4893287;29;21692;-71
2021/04/01 01:27:50;;;;;;;9.20;7.20;;;10.10;64.20;;;;;;4890344;29;20213;-70
2021/04/01 01:30:19;;;;;;;10.57;7.43;;;10.10;64.40;;;;;;4886668;29;20816;-71
2021/04/01 01:32:47;;;;;;;14.40;6.90;;;10.20;64.20;;;;;;4883685;29;20269;-70
2021/04/01 01:35:15;;;;;;;12.13;7.13;;;10.10;64.10;;;;;;4880740;29;20758;-70
2021/04/01 01:37:57;;;;;;;8.10;6.90;;;10.10;64.30;;;;;;4887133;29;20193;-70
2021/04/01 01:40:25;;;;;;;11.90;7.27;;;10.10;64.70;;;;;;4887485;29;20192;-71
2021/04/01 01:42:52;;;;;;;10.20;6.90;;;10.10;64.80;;;;;;4884624;29;20268;-71
2021/04/01 01:45:20;;;;;;;8.63;7.13;;;10.00;64.30;;;;;;4892391;29;20201;-70
2021/04/01 01:47:46;;;;;;;9.60;6.53;;;10.00;64.10;;;;;;4885004;29;20185;-70
2021/04/01 01:50:14;;;;;;;7.77;6.10;;;10.00;64.10;;;;;;4886899;29;20272;-71
2021/04/01 01:52:41;;;;;;;8.97;6.63;;;10.00;64.10;;;;;;4886229;29;20682;-71
2021/04/01 01:55:09;;;;;;;8.00;6.70;;;10.00;64.30;;;;;;4884156;29;20710;-70
2021/04/01 01:57:35;;;;;;;13.63;6.63;;;10.00;64.50;;;;;;4884928;29;20189;-70
2021/04/01 02:00:04;;;;;;;11.03;6.57;;;10.00;64.60;;;;;;4889055;29;20189;-70
2021/04/01 02:02:30;;;;;;;10.93;6.97;;;10.00;64.50;;;;;;4874616;29;20674;-70
2021/04/01 02:04:55;;;;;;;11.03;7.23;;;10.00;64.60;;;;;;4891606;29;20185;-70
2021/04/01 02:07:21;;;;;;;9.03;7.10;;;10.00;64.40;;;;;;4884335;29;20193;-71
2021/04/01 02:09:48;;;;;;;11.23;7.30;;;10.00;64.50;;;;;;4884807;29;20208;-70
2021/04/01 02:12:14;;;;;;;8.37;6.97;;;10.00;64.90;;;;;;4886090;29;20570;-70
2021/04/01 02:14:41;;;;;;;10.30;7.10;;;10.00;64.60;;;;;;4883110;29;20233;-70
2021/04/01 02:17:08;;;;;;;9.83;7.33;;;10.00;64.80;;;;;;4885767;29;20833;-70
2021/04/01 02:19:34;;;;;;;13.20;7.70;;;10.00;64.90;;;;;;4885979;29;20189;-70
2021/04/01 02:22:00;;;;;;;9.27;7.37;;;10.00;65.20;;;;;;4890807;29;20185;-70
2021/04/01 02:24:25;;;;;;;9.17;7.10;;;10.00;65.40;;;;;;4888822;29;20252;-71
2021/04/01 02:26:59;;;;;;;11.83;7.90;;;10.00;65.70;;;;;;4887919;29;20244;-70
2021/04/01 02:29:26;;;;;;;10.37;7.67;;;10.00;65.40;;;;;;4884019;29;20273;-70
2021/04/01 02:31:52;;;;;;;9.63;8.27;;;10.00;65.50;;;;;;4885819;29;20185;-71
2021/04/01 02:34:19;;;;;;;14.07;8.67;;;10.00;65.50;;;;;;4889302;29;20220;-71
2021/04/01 02:36:45;;;;;;;9.70;8.60;;;10.00;65.60;;;;;;4888158;29;20185;-71
2021/04/01 02:39:11;;;;;;;14.27;8.30;;;10.00;65.80;;;;;;4886186;29;20188;-70
2021/04/01 02:41:37;;;;;;;11.40;8.10;;;10.10;65.80;;;;;;4882860;29;20265;-70
2021/04/01 02:44:03;;;;;;;11.30;8.10;;;10.10;66.40;;;;;;4884167;29;20621;-70
2021/04/01 02:46:28;;;;;;;15.37;7.93;;;10.10;66.40;;;;;;4892618;29;20185;-70
2021/04/01 02:48:54;;;;;;;14.63;8.00;;;10.10;66.80;;;;;;4885060;29;20248;-70
2021/04/01 02:51:20;;;;;;;23.10;8.33;;;10.20;66.80;;;;;;4890930;29;20185;-70
2021/04/01 02:53:46;;;;;;;10.03;7.80;;;10.20;67.20;;;;;;4893042;29;20320;-69
2021/04/01 02:56:12;;;;;;;8.77;7.17;;;10.20;67.30;;;;;;4889019;29;20193;-70
2021/04/01 02:58:38;;;;;;;14.80;8.47;;;10.20;67.30;;;;;;4883521;29;20194;-70
2021/04/01 03:01:05;;;;;;;12.03;8.30;;;10.20;67.30;;;;;;4885905;29;20252;-70
2021/04/01 03:03:37;;;;;;;9.50;7.33;;;10.10;67.40;;;;;;4886307;29;20216;-69
2021/04/01 03:06:04;;;;;;;9.47;7.33;;;10.20;67.70;;;;;;4887716;29;20185;-70
2021/04/01 03:08:30;;;;;;;10.77;7.03;;;10.10;67.40;;;;;;4889794;29;20193;-70
2021/04/01 03:10:56;;;;;;;9.90;7.43;;;10.00;67.20;;;;;;4887731;29;20260;-70
2021/04/01 03:13:22;;;;;;;9.53;7.17;;;9.90;67.80;;;;;;4887989;29;20186;-70
2021/04/01 03:15:49;;;;;;;11.40;7.03;;;9.90;67.70;;;;;;4870995;29;20181;-70
2021/04/01 03:18:17;;;;;;;7.30;5.93;;;9.80;67.30;;;;;;4884514;29;20687;-70
2021/04/01 03:20:43;;;;;;;11.07;7.13;;;9.80;67.40;;;;;;4890017;29;20184;-70
2021/04/01 03:23:09;;;;;;;13.63;6.87;;;9.70;68.00;;;;;;4892186;29;20177;-71
2021/04/01 03:25:34;;;;;;;6.53;5.87;;;9.60;68.10;;;;;;4892830;29;20188;-70
2021/04/01 03:28:01;;;;;;;7.20;6.27;;;9.60;67.80;;;;;;4878365;29;20195;-70
2021/04/01 03:30:28;;;;;;;8.00;6.50;;;9.60;67.70;;;;;;4889017;29;20192;-70
2021/04/01 03:32:53;;;;;;;8.97;6.17;;;9.60;68.00;;;;;;4880976;29;20194;-70
2021/04/01 03:35:24;;;;;;;10.80;6.53;;;9.60;67.90;;;;;;4881360;29;20216;-70
2021/04/01 03:37:54;;;;;;;20.33;6.97;;;9.60;68.00;;;;;;4890881;29;20182;-70
2021/04/01 03:40:21;;;;;;;10.63;6.90;;;9.60;68.40;;;;;;4886924;29;20177;-70
2021/04/01 03:42:47;;;;;;;7.80;6.60;;;9.50;68.90;;;;;;4888740;29;20173;-70
2021/04/01 03:45:14;;;;;;;9.50;7.23;;;9.40;69.20;;;;;;4890163;29;20689;-71
2021/04/01 03:47:41;;;;;;;15.37;6.97;;;9.50;68.90;;;;;;4890263;29;20181;-70
2021/04/01 03:50:09;;;;;;;9.77;6.90;;;9.40;69.20;;;;;;4888086;29;20193;-70
2021/04/01 03:52:36;;;;;;;13.30;7.37;;;9.50;68.80;;;;;;4890185;29;20287;-70
2021/04/01 03:55:11;;;;;;;7.87;6.50;;;9.50;68.70;;;;;;4889864;29;20227;-70
2021/04/01 03:57:37;;;;;;;8.93;6.20;;;9.50;68.90;;;;;;4889201;29;20665;-70
2021/04/01 04:00:10;;;;;;;7.67;6.13;;;9.50;68.90;;;;;;4887379;29;20177;-69
2021/04/01 04:02:42;;;;;;;8.53;5.50;;;9.60;68.70;;;;;;4889520;29;20262;-70
2021/04/01 04:10:39;;;;;;;7.00;6.30;;;9.70;69.00;;;;;;4888988;29;20226;-70
2021/04/01 04:15:31;;;;;;;6.70;6.03;;;9.80;69.40;;;;;;4888073;29;20228;-70
2021/04/01 04:17:56;;;;;;;8.03;6.70;;;9.80;69.10;;;;;;4890684;29;20200;-70
2021/04/01 04:20:22;;;;;;;7.30;5.70;;;9.80;68.80;;;;;;4887051;29;20741;-70
2021/04/01 04:22:52;;;;;;;9.43;6.87;;;9.80;69.10;;;;;;4890038;29;20581;-70
2021/04/01 04:25:18;;;;;;;8.07;6.33;;;9.80;69.30;;;;;;4877671;29;20185;-70
2021/04/01 04:30:29;;;;;;;7.57;6.10;;;9.80;69.50;;;;;;4886960;29;20181;-69
2021/04/01 04:32:55;;;;;;;8.40;5.90;;;9.80;69.90;;;;;;4883805;29;20189;-69
2021/04/01 04:35:21;;;;;;;8.73;7.50;;;9.80;69.90;;;;;;4883157;29;20249;-70
2021/04/01 04:37:47;;;;;;;7.13;6.10;;;9.80;70.00;;;;;;4884840;29;20292;-70
2021/04/01 04:40:14;;;;;;;8.53;7.23;;;9.80;70.00;;;;;;4886433;29;20182;-71
2021/04/01 04:42:39;;;;;;;10.23;7.07;;;9.80;69.80;;;;;;4882195;29;20181;-68
2021/04/01 04:45:07;;;;;;;10.43;7.23;;;9.80;69.70;;;;;;4882461;29;20689;-69
2021/04/01 04:47:33;;;;;;;10.47;6.67;;;9.80;69.50;;;;;;4884389;29;20578;-69
2021/04/01 04:49:58;;;;;;;13.63;7.97;;;9.80;69.50;;;;;;4884419;29;20183;-70
2021/04/01 04:52:24;;;;;;;8.80;7.90;;;9.80;69.50;;;;;;4883822;29;20256;-70
2021/04/01 04:54:50;;;;;;;12.23;7.00;;;9.80;69.40;;;;;;4885346;29;20304;-70
2021/04/01 05:05:04;;;;;;;9.53;7.00;;;9.80;69.50;;;;;;4880516;29;20241;-73
2021/04/01 05:07:29;;;;;;;11.37;6.10;;;9.90;70.00;;;;;;4883250;29;20745;-69
2021/04/01 05:09:55;;;;;;;10.60;6.90;;;9.80;70.00;;;;;;4889791;29;20208;-69
2021/04/01 05:12:21;;;;;;;10.40;6.57;;;9.90;70.00;;;;;;4891650;29;20220;-69
2021/04/01 05:14:46;;;;;;;8.63;7.27;;;9.90;69.70;;;;;;4891953;29;20241;-69
2021/04/01 05:17:16;;;;;;;12.10;7.13;;;9.90;69.80;;;;;;4880881;29;20272;-71
2021/04/01 05:19:42;;;;;;;17.23;7.40;;;9.90;70.00;;;;;;4877030;29;20194;-70
2021/04/01 05:22:14;;;;;;;9.23;7.23;;;9.90;69.70;;;;;;4891959;29;20181;-70
2021/04/01 05:24:40;;;;;;;10.90;7.10;;;10.00;69.70;;;;;;4892512;29;20271;-71
2021/04/01 05:27:16;;;;;;;11.80;7.30;;;9.90;69.00;;;;;;4892541;29;20185;-71
2021/04/01 05:29:57;;;;;;;11.30;7.10;;;9.90;68.70;;;;;;4893805;29;20705;-70
2021/04/01 05:32:27;;;;;;;8.13;6.33;;;9.90;68.90;;;;;;4886231;29;20681;-69
2021/04/01 05:34:54;;;;;;;10.53;7.63;;;9.90;69.00;;;;;;4893728;29;20213;-70
2021/04/01 05:37:22;;;;;;;10.93;7.43;;;9.90;68.60;;;;;;4893053;29;20720;-69
2021/04/01 05:39:49;;;;;;;10.27;7.33;;;9.90;68.90;;;;;;4893842;29;20188;-69
2021/04/01 05:42:17;;;;;;;9.90;7.13;;;10.00;68.70;;;;;;4893238;29;20279;-70
2021/04/01 05:44:52;;;;;;;14.27;7.47;;;9.90;68.20;;;;;;4893545;29;20184;-69
2021/04/01 05:50:03;;;;;;;12.00;8.37;;;10.00;68.20;;;;;;4882759;29;20668;-70
2021/04/01 06:05:42;;;;;;;13.50;8.00;;;10.30;68.20;;;;;;4894401;29;20184;-72
2021/04/01 06:08:25;;;;;;;17.57;8.83;;;10.40;67.90;;;;;;4886069;29;20174;-70
2021/04/01 06:10:53;;;;;;;12.93;7.80;;;10.50;68.20;;;;;;4885686;29;20177;-70
2021/04/01 06:13:22;;;;;;;13.10;8.23;;;10.60;67.80;;;;;;4887461;29;20239;-71
2021/04/01 06:15:52;;;;;;;13.80;8.40;;;10.60;68.10;;;;;;4881362;29;20730;-71
2021/04/01 06:18:22;;;;;;;11.10;7.43;;;10.80;67.70;;;;;;4881323;29;20674;-70
2021/04/01 06:20:50;;;;;;;12.23;7.57;;;10.80;66.20;;;;;;4888555;29;20293;-71
2021/04/01 06:23:30;;;;;;;7.60;5.67;;;10.90;66.90;;;;;;4890788;29;20177;-71
2021/04/01 06:25:57;;;;;;;8.77;6.07;;;10.90;65.60;;;;;;4891259;29;20183;-69
2021/04/01 06:28:43;;;;;;;9.10;6.40;;;11.00;65.20;;;;;;4892520;29;20192;-69
2021/04/01 06:31:12;;;;;;;7.07;5.97;;;11.10;65.00;;;;;;4891463;29;20188;-71
2021/04/01 06:33:57;;;;;;;7.63;6.17;;;11.20;64.80;;;;;;4890522;29;20209;-71
2021/04/01 06:36:28;;;;;;;9.33;7.10;;;11.30;64.90;;;;;;4890870;29;20574;-70
2021/04/01 06:38:54;;;;;;;14.43;6.17;;;11.40;65.10;;;;;;4892187;29;20181;-70
2021/04/01 06:41:25;;;;;;;7.90;5.95;;;11.50;64.40;;;;;;4891940;29;20693;-70
2021/04/01 06:44:31;;;;;;;10.63;6.27;;;11.60;64.10;;;;;;4880366;29;20690;-69
2021/04/01 06:47:08;;;;;;;8.07;5.53;;;11.70;63.90;;;;;;4881434;29;20190;-69
2021/04/01 06:52:19;;;;;;;7.88;5.32;;;11.80;63.70;;;;;;4890908;29;20209;-69
2021/04/01 07:03:10;;;;;;;9.73;5.95;;;12.20;64.30;;;;;;4891776;29;20185;-68
2021/04/01 07:05:46;;;;;;;7.60;6.55;;;12.30;64.70;;;;;;4888018;29;20194;-69
2021/04/01 07:08:14;;;;;;;7.05;6.00;;;12.40;64.70;;;;;;4883116;29;20188;-70
2021/04/01 07:11:01;;;;;;;8.40;5.72;;;12.40;64.60;;;;;;4886711;29;20184;-69
2021/04/01 07:13:33;;;;;;;8.23;6.50;;;12.50;64.70;;;;;;4887374;29;20182;-68
2021/04/01 07:16:11;;;;;;;7.93;6.40;;;12.50;64.90;;;;;;4886019;29;20564;-71
2021/04/01 07:34:36;;;;;;;6.13;5.63;;;12.50;65.90;;;;;;4888973;29;20218;-70
2021/04/01 07:48:21;;;;;;;6.13;5.28;;;12.40;66.00;;;;;;4885940;29;20184;-71
2021/04/01 07:50:47;;;;;;;5.57;5.07;;;12.50;66.20;;;;;;4889589;29;20184;-71
2021/04/01 07:53:23;;;;;;;6.32;5.78;;;12.50;65.90;;;;;;4885169;29;20252;-71
2021/04/01 08:03:54;;;;;;;5.95;5.45;;;12.80;65.80;;;;;;4888537;29;20185;-71
2021/04/01 08:06:25;;;;;;;6.18;5.50;;;12.90;65.90;;;;;;4886717;29;20251;-70
2021/04/01 08:08:56;;;;;;;7.05;4.93;;;12.90;65.40;;;;;;4886163;29;20324;-71
2021/04/01 08:11:30;;;;;;;6.20;5.63;;;12.90;65.40;;;;;;4885810;29;20189;-72
2021/04/01 08:14:33;;;;;;;7.40;5.68;;;12.90;65.80;;;;;;4884224;29;20608;-71
2021/04/01 08:17:16;;;;;;;5.97;5.40;;;12.90;65.70;;;;;;4812615;29;20210;-71
2021/04/01 08:19:45;;;;;;;5.75;5.25;;;13.00;66.30;;;;;;4814132;29;20647;-69
2021/04/01 08:22:17;;;;;;;5.10;4.55;;;13.00;65.60;;;;;;4814488;29;20211;-69
2021/04/01 08:24:51;;;;;;;5.25;4.60;;;13.10;65.00;;;;;;4813657;29;20195;-71
2021/04/01 08:35:24;;;;;;;5.93;4.82;;;13.90;64.80;;;;;;4814867;29;20227;-71
2021/04/01 08:38:10;;;;;;;4.68;4.18;;;14.30;63.70;;;;;;4813471;29;20203;-70
2021/04/01 08:40:37;;;;;;;5.00;4.57;;;14.70;63.20;;;;;;4814257;29;20225;-70
2021/04/01 08:43:34;;;;;;;4.72;4.13;;;15.40;61.90;;;;;;4814093;29;20199;-70
2021/04/01 08:46:05;;;;;;;4.90;4.50;;;16.20;60.60;;;;;;4831616;29;20230;-71
2021/04/01 08:48:57;;;;;;;5.75;4.55;;;16.90;59.20;;;;;;4834119;29;20271;-70
2021/04/01 08:51:41;;;;;;;5.20;4.30;;;17.50;57.90;;;;;;4835162;29;20199;-69
2021/04/01 08:54:11;;;;;;;4.25;3.97;;;18.50;56.50;;;;;;4873682;29;20315;-70
2021/04/01 08:56:44;;;;;;;4.45;4.13;;;19.00;55.20;;;;;;4890831;29;20211;-69
2021/04/01 08:59:16;;;;;;;6.80;3.80;;;19.30;53.30;;;;;;4892144;29;20184;-70
2021/04/01 09:01:43;;;;;;;4.30;3.95;;;19.60;53.30;;;;;;4890747;29;20193;-71
2021/04/01 09:04:10;;;;;;;4.00;3.80;;;20.00;53.30;;;;;;4887210;29;20249;-70
2021/04/01 09:06:40;;;;;;;5.22;3.80;;;20.60;52.20;;;;;;4888428;29;20284;-69
2021/04/01 09:09:11;;;;;;;3.70;3.50;;;21.50;50.70;;;;;;4887655;29;20192;-70
2021/04/01 09:14:14;;;;;;;4.35;4.05;;;22.50;48.40;;;;;;4888994;29;20209;-71
2021/04/01 09:16:46;;;;;;;4.50;4.10;;;22.60;49.30;;;;;;4887416;29;20189;-71
2021/04/01 09:19:14;;;;;;;3.45;3.22;;;22.90;47.50;;;;;;4888558;29;20757;-70
2021/04/01 09:21:42;;;;;;;4.53;4.20;;;23.30;48.00;;;;;;4886816;29;20186;-71
2021/04/01 09:24:11;;;;;;;3.58;3.33;;;23.70;47.30;;;;;;4888749;29;20219;-71
2021/04/01 09:26:47;;;;;;;3.55;3.35;;;24.10;46.70;;;;;;4892599;29;20211;-71
2021/04/01 09:29:12;;;;;;;4.57;3.63;;;24.80;46.00;;;;;;4873022;29;20192;-70
2021/04/01 09:31:47;;;;;;;3.00;2.90;;;25.30;45.60;;;;;;4889788;29;20185;-70
2021/04/01 09:34:17;;;;;;;3.55;3.35;;;25.50;43.90;;;;;;4891045;29;20216;-70
2021/04/01 09:36:44;;;;;;;3.70;3.40;;;25.40;45.00;;;;;;4890945;29;20185;-70
2021/04/01 09:39:27;;;;;;;3.08;2.88;;;25.80;44.70;;;;;;4888265;29;20584;-71
2021/04/01 09:42:11;;;;;;;3.30;3.03;;;25.60;44.10;;;;;;4876911;29;20215;-70
2021/04/01 09:44:55;;;;;;;4.15;3.75;;;25.20;42.50;;;;;;4886739;29;20216;-70
2021/04/01 09:47:29;;;;;;;4.00;3.65;;;25.00;43.90;;;;;;4887286;29;20231;-70
2021/04/01 09:50:04;;;;;;;2.83;2.72;;;25.30;44.30;;;;;;4888089;29;20700;-70
2021/04/01 09:52:30;;;;;;;3.35;2.75;;;25.80;44.20;;;;;;4887870;29;20256;-70
2021/04/01 09:54:58;;;;;;;2.42;2.28;;;26.30;42.60;;;;;;4889502;29;20227;-70
2021/04/01 09:57:48;;;;;;;2.88;2.67;;;26.70;41.90;;;;;;4884504;29;20189;-70
2021/04/01 10:00:37;;;;;;;2.20;2.10;;;27.00;41.80;;;;;;4892103;29;20197;-70
2021/04/01 10:03:17;;;;;;;2.38;2.28;;;27.40;41.30;;;;;;4891009;29;20264;-70
2021/04/01 10:05:46;;;;;;;2.45;2.40;;;27.70;40.60;;;;;;4888101;29;20216;-70
2021/04/01 10:08:25;;;;;;;2.55;2.35;;;27.80;40.40;;;;;;4883408;29;20182;-70
2021/04/01 10:10:53;;;;;;;2.50;2.40;;;28.20;41.30;;;;;;4889632;29;20201;-70
2021/04/01 10:13:29;;;;;;;2.05;1.98;;;28.80;40.60;;;;;;4888768;29;20185;-72
2021/04/01 10:15:57;;;;;;;2.33;1.88;;;29.60;40.80;;;;;;4893897;29;20196;-69
2021/04/01 10:18:36;;;;;;;1.83;1.77;;;30.00;39.10;;;;;;4892489;29;20670;-70
2021/04/01 10:21:10;;;;;;;2.17;2.03;;;30.60;38.80;;;;;;4891129;29;20256;-70
2021/04/01 10:23:58;;;;;;;1.88;1.83;;;31.10;37.90;;;;;;4892095;29;20193;-68
2021/04/01 10:26:31;;;;;;;2.05;1.95;;;31.50;38.20;;;;;;4891931;29;20825;-71
2021/04/01 10:31:43;;;;;;;2.28;2.17;;;32.20;38.90;;;;;;4882361;29;20218;-69
2021/04/01 10:34:44;;;;;;;2.08;1.98;;;32.50;37.50;;;;;;4889990;29;20706;-72
2021/04/01 10:37:12;;;;;;;2.13;2.03;;;33.00;36.50;;;;;;4815214;29;20203;-73
2021/04/01 10:39:39;;;;;;;1.88;1.77;;;33.10;37.80;;;;;;4819424;29;20673;-72
2021/04/01 10:42:07;;;;;;;2.03;1.92;;;33.10;36.40;;;;;;4836112;29;20190;-73
2021/04/01 10:44:34;;;;;;;2.05;2.03;;;32.50;35.50;;;;;;4833582;29;20187;-70
2021/04/01 10:47:02;;;;;;;1.92;1.92;;;32.00;36.40;;;;;;4834612;29;20517;-72
2021/04/01 10:49:30;;;;;;;1.77;1.75;;;31.90;37.50;;;;;;4833998;29;20627;-70
2021/04/01 10:52:09;;;;;;;1.77;1.77;;;31.80;36.20;;;;;;4831927;29;20921;-69
2021/04/01 10:54:38;;;;;;;5.15;2.22;;;31.70;36.10;;;;;;4833468;29;20729;-70
2021/04/01 10:57:12;;;;;;;2.55;1.85;;;32.10;37.60;;;;;;4835381;29;20335;-69
2021/04/01 10:59:48;;;;;;;1.75;1.75;;;32.60;36.50;;;;;;4834906;29;20589;-70
2021/04/01 11:02:22;;;;;;;2.50;2.33;;;33.10;36.70;;;;;;4834296;29;20196;-70
2021/04/01 11:05:02;;;;;;;2.00;2.00;;;33.40;34.90;;;;;;4833768;29;20194;-70
2021/04/01 11:07:35;;;;;;;3.17;2.25;;;33.50;36.00;;;;;;4832043;29;20202;-70
2021/04/01 11:10:02;;;;;;;2.47;2.25;;;33.50;35.80;;;;;;4830254;29;20331;-69
2021/04/01 11:12:30;;;;;;;1.80;1.70;;;33.80;34.40;;;;;;4855224;29;20228;-70
2021/04/01 11:15:07;;;;;;;2.25;2.05;;;34.30;33.70;;;;;;4885854;29;20212;-70
2021/04/01 11:17:39;;;;;;;1.80;1.80;;;34.30;33.70;;;;;;4889254;29;20283;-69
2021/04/01 11:20:06;;;;;;;1.60;1.60;;;34.30;35.00;;;;;;4890394;29;20181;-69
2021/04/01 11:22:32;;;;;;;2.25;2.05;;;34.30;34.40;;;;;;4886643;29;20199;-70
2021/04/01 11:25:11;;;;;;;1.40;1.40;;;33.70;34.30;;;;;;4886651;29;20730;-70
2021/04/01 11:27:51;;;;;;;1.80;1.70;;;33.00;33.90;;;;;;4888070;29;20710;-70
2021/04/01 11:30:17;;;;;;;1.80;1.80;;;32.10;33.40;;;;;;4888723;29;20181;-71
2021/04/01 11:32:51;;;;;;;1.90;1.80;;;31.20;34.00;;;;;;4890568;29;20185;-70
2021/04/01 11:35:18;;;;;;;2.17;1.95;;;30.10;35.40;;;;;;4888361;29;20209;-71
2021/04/01 11:37:48;;;;;;;1.92;1.88;;;30.00;36.20;;;;;;4889289;29;20674;-70
2021/04/01 11:40:15;;;;;;;2.30;1.75;;;30.50;36.80;;;;;;4889905;29;20177;-71
2021/04/01 11:42:52;;;;;;;2.17;2.08;;;31.20;34.70;;;;;;4887117;29;20212;-71
2021/04/01 11:45:29;;;;;;;1.60;1.60;;;32.10;35.30;;;;;;4883968;29;20226;-71
2021/04/01 11:47:55;;;;;;;1.73;1.73;;;32.80;34.30;;;;;;4887239;29;20188;-71
2021/04/01 11:50:21;;;;;;;2.13;2.03;;;33.20;34.70;;;;;;4888268;29;20181;-71
2021/04/01 11:52:53;;;;;;;1.98;1.88;;;33.50;35.40;;;;;;4888535;29;20303;-70
2021/04/01 11:55:20;;;;;;;2.58;1.63;;;33.90;33.30;;;;;;4888212;29;20215;-71
2021/04/01 11:57:46;;;;;;;1.73;1.63;;;34.20;34.20;;;;;;4888545;29;20583;-70
2021/04/01 12:00:26;;;;;;;1.65;1.42;;;34.00;33.80;;;;;;4888724;29;20188;-70
2021/04/01 12:02:59;;;;;;;1.73;1.73;;;33.50;34.80;;;;;;4887292;29;20203;-70
2021/04/01 12:05:28;;;;;;;1.70;1.60;;;33.60;33.60;;;;;;4888302;29;20264;-71
2021/04/01 12:07:55;;;;;;;1.35;1.25;;;33.90;34.40;;;;;;4888244;29;20679;-71
2021/04/01 12:10:21;;;;;;;2.42;2.15;;;33.90;33.00;;;;;;4883096;29;20218;-68
2021/04/01 12:12:56;;;;;;;1.70;1.70;;;33.70;35.10;;;;;;4886232;29;20185;-67
2021/04/01 12:15:36;;;;;;;1.50;1.50;;;33.60;33.30;;;;;;4887990;29;20223;-70
2021/04/01 12:18:04;;;;;;;1.60;1.48;;;33.40;32.40;;;;;;4868643;29;20189;-70
2021/04/01 12:20:31;;;;;;;1.52;1.52;;;33.00;34.60;;;;;;4882913;29;20580;-70
2021/04/01 12:22:56;;;;;;;2.15;1.27;;;33.00;33.70;;;;;;4882995;29;20188;-70
2021/04/01 12:25:25;;;;;;;1.45;1.45;;;33.20;34.30;;;;;;4880485;29;20196;-70
2021/04/01 12:27:56;;;;;;;2.75;1.50;;;33.20;34.20;;;;;;4885919;29;20272;-70
2021/04/01 12:30:30;;;;;;;1.80;1.60;;;33.20;33.10;;;;;;4888308;29;20419;-68
2021/04/01 12:33:12;;;;;;;2.15;1.45;;;33.20;34.00;;;;;;4887473;29;20260;-69
2021/04/01 12:35:53;;;;;;;2.33;1.67;;;33.50;32.90;;;;;;4884125;29;20217;-69
2021/04/01 12:38:36;;;;;;;1.55;1.55;;;33.70;33.80;;;;;;4887663;29;20193;-70
2021/04/01 12:41:05;;;;;;;1.50;1.40;;;33.90;32.80;;;;;;4884449;29;20188;-69
2021/04/01 12:43:44;;;;;;;1.55;1.55;;;33.40;33.50;;;;;;4882030;29;20617;-69
2021/04/01 12:46:10;;;;;;;1.88;1.77;;;32.80;33.10;;;;;;4879354;29;20256;-70
2021/04/01 12:48:48;;;;;;;2.05;1.73;;;32.50;33.20;;;;;;4881370;29;20185;-68
2021/04/01 12:51:23;;;;;;;1.60;1.58;;;32.80;34.00;;;;;;4886760;29;20203;-69
2021/04/01 12:54:04;;;;;;;2.40;1.58;;;33.20;33.90;;;;;;4884606;29;20314;-69
2021/04/01 12:56:36;;;;;;;1.58;1.48;;;33.70;33.00;;;;;;4876071;29;20190;-68
2021/04/01 12:59:05;;;;;;;1.70;1.70;;;34.20;32.10;;;;;;4877084;29;20245;-69
2021/04/01 13:04:06;;;;;;;1.70;1.70;;;35.20;33.10;;;;;;4886239;29;20544;-69
2021/04/01 13:06:41;;;;;;;1.73;1.73;;;35.20;31.90;;;;;;4878263;29;20189;-70
2021/04/01 13:11:42;;;;;;;2.40;1.73;;;34.90;32.80;;;;;;4884713;29;20581;-71
2021/04/01 13:14:09;;;;;;;2.10;2.00;;;34.70;31.70;;;;;;4889708;29;20212;-71
2021/04/01 13:16:34;;;;;;;2.08;1.98;;;34.70;31.70;;;;;;4885470;29;20244;-70
2021/04/01 13:19:00;;;;;;;2.90;1.88;;;34.80;32.00;;;;;;4873854;29;20627;-70
2021/04/01 13:26:51;;;;;;;1.50;1.50;;;34.20;31.00;;;;;;4889212;29;20249;-70
2021/04/01 13:29:20;;;;;;;1.52;1.52;;;33.00;31.20;;;;;;4888729;29;20184;-69
2021/04/01 13:31:50;;;;;;;3.25;1.98;;;32.10;32.40;;;;;;4888851;29;20200;-70
2021/04/01 13:36:56;;;;;;;1.70;1.63;;;32.20;32.80;;;;;;4892878;29;20249;-69
2021/04/01 13:39:25;;;;;;;1.73;1.73;;;32.40;32.60;;;;;;4893616;29;20291;-69
2021/04/01 13:44:23;;;;;;;1.60;1.60;;;33.20;31.90;;;;;;4890194;29;21406;-70
2021/04/01 13:46:49;;;;;;;2.20;1.67;;;33.70;31.40;;;;;;4891582;29;20232;-71
2021/04/01 13:49:24;;;;;;;1.70;1.48;;;34.20;31.40;;;;;;4892735;29;20196;-70
2021/04/01 13:51:54;;;;;;;1.80;1.70;;;34.60;31.20;;;;;;4892987;29;20220;-71
2021/04/01 13:54:35;;;;;;;4.55;1.95;;;34.30;32.10;;;;;;4893301;29;20352;-70
2021/04/01 13:57:30;;;;;;;3.38;1.73;;;33.80;31.40;;;;;;4890671;29;20627;-69
2021/04/01 14:11:10;;;;;;;2.05;1.92;;;34.00;32.50;;;;;;4888922;29;20218;-69
2021/04/01 14:13:36;;;;;;;2.00;1.90;;;34.10;31.50;;;;;;4891159;29;20328;-70
2021/04/01 14:16:02;;;;;;;1.90;1.83;;;34.20;32.40;;;;;;4890478;29;20209;-71
2021/04/01 14:18:30;;;;;;;2.30;1.52;;;34.10;31.50;;;;;;4888718;29;20236;-70
2021/04/01 14:20:56;;;;;;;3.80;1.70;;;34.00;31.40;;;;;;4889119;29;20184;-71
2021/04/01 14:23:26;;;;;;;1.77;1.67;;;34.00;32.30;;;;;;4889429;29;20243;-71
2021/04/01 14:25:54;;;;;;;1.40;1.40;;;34.00;31.60;;;;;;4890136;29;20203;-70
2021/04/01 14:28:20;;;;;;;1.70;1.42;;;33.50;32.10;;;;;;4889532;29;20682;-70
2021/04/01 14:30:46;;;;;;;6.18;1.80;;;33.10;31.30;;;;;;4889592;29;20188;-71
2021/04/01 14:33:16;;;;;;;1.63;1.63;;;33.10;31.50;;;;;;4890181;29;20938;-71
2021/04/01 14:35:47;;;;;;;4.53;1.70;;;33.10;30.90;;;;;;4889918;29;21224;-70
2021/04/01 14:38:15;;;;;;;1.63;1.55;;;33.30;31.20;;;;;;4892026;29;20682;-70
2021/04/01 14:40:47;;;;;;;1.95;1.80;;;33.40;31.90;;;;;;4891926;29;20624;-70
2021/04/01 14:43:38;;;;;;;1.60;1.60;;;33.40;31.70;;;;;;4892309;29;20883;-70
2021/04/01 14:45:59;;;;;;;1.63;1.55;;;33.20;31.40;;;;;;4891901;29;20556;-70
2021/04/01 14:48:25;;;;;;;1.55;1.45;;;32.70;30.80;;;;;;4893148;29;20232;-70
2021/04/01 14:50:51;;;;;;;1.45;1.45;;;32.40;31.10;;;;;;4892083;29;20184;-69
2021/04/01 14:53:29;;;;;;;1.67;1.58;;;32.30;31.40;;;;;;4892508;29;20216;-71
2021/04/01 14:55:55;;;;;;;4.10;2.03;;;32.00;31.40;;;;;;4892417;29;20219;-70
2021/04/01 14:58:21;;;;;;;3.22;1.67;;;31.90;32.00;;;;;;4891884;29;20197;-70
2021/04/01 15:00:50;;;;;;;2.47;1.40;;;31.80;31.60;;;;;;4891069;29;20565;-71
2021/04/01 15:03:16;;;;;;;1.73;1.60;;;31.60;31.90;;;;;;4890869;29;20590;-69